Time;durP1;ratioP1;P1;durP2;ratioP2;P2;SDS_P1;SDS_P2;PMS_P1;PMS_P2;Temp;Humidity;BMP_temperature;BMP_pressure;BME280_temperature;BME280_humidity;BME280_pressure;Samples;Min_cycle;Max_cycle;Signal;HPM_P1;HPM_P2
2022/03/26 00:00:45;;;;;;;38.90;20.70;;;;;;;;;;5053219;28;20040;-29
2022/03/26 00:03:11;;;;;;;35.28;21.17;;;;;;;;;;5058520;28;20422;-29
2022/03/26 00:05:37;;;;;;;37.47;20.38;;;;;;;;;;5043496;28;20040;-29
2022/03/26 00:08:03;;;;;;;38.58;21.33;;;;;;;;;;5067847;28;20068;-30
2022/03/26 00:10:29;;;;;;;36.22;21.33;;;;;;;;;;5061667;28;20032;-31
2022/03/26 00:12:57;;;;;;;34.97;20.70;;;;;;;;;;5062070;28;20040;-32
2022/03/26 00:15:23;;;;;;;40.58;23.88;;;;;;;;;;5063467;28;20039;-29
2022/03/26 00:17:49;;;;;;;43.03;24.33;;;;;;;;;;5065510;28;20517;-28
2022/03/26 00:20:16;;;;;;;42.30;22.98;;;;;;;;;;5061161;28;20099;-29
2022/03/26 00:22:42;;;;;;;38.08;22.67;;;;;;;;;;5058710;28;20040;-29
2022/03/26 00:25:10;;;;;;;38.47;22.80;;;;;;;;;;5066036;28;20044;-30
2022/03/26 00:27:36;;;;;;;40.58;24.00;;;;;;;;;;5033715;28;20045;-30
2022/03/26 00:30:03;;;;;;;39.17;23.05;;;;;;;;;;5065921;28;20044;-30
2022/03/26 00:32:30;;;;;;;45.22;24.58;;;;;;;;;;5055675;28;20486;-29
2022/03/26 00:34:57;;;;;;;45.28;24.85;;;;;;;;;;5063904;28;20121;-30
2022/03/26 00:37:23;;;;;;;40.53;24.48;;;;;;;;;;5062000;28;20037;-28
2022/03/26 00:39:49;;;;;;;44.67;24.45;;;;;;;;;;5070135;28;20075;-29
2022/03/26 00:42:15;;;;;;;38.83;23.55;;;;;;;;;;5061461;28;20037;-30
2022/03/26 00:44:41;;;;;;;39.47;23.70;;;;;;;;;;5052147;28;20059;-29
2022/03/26 00:47:07;;;;;;;45.47;25.05;;;;;;;;;;5051314;28;20071;-31
2022/03/26 00:49:34;;;;;;;38.47;23.90;;;;;;;;;;5058901;28;20033;-27
2022/03/26 00:52:00;;;;;;;42.97;24.52;;;;;;;;;;5065567;28;20493;-25
2022/03/26 00:54:26;;;;;;;40.03;24.73;;;;;;;;;;5065439;28;20047;-26
2022/03/26 00:56:52;;;;;;;46.72;26.10;;;;;;;;;;5063167;28;20083;-26
2022/03/26 00:59:18;;;;;;;42.78;24.60;;;;;;;;;;5065878;28;20036;-31
2022/03/26 01:01:44;;;;;;;43.40;24.30;;;;;;;;;;5061556;28;20076;-29
2022/03/26 01:04:10;;;;;;;46.88;26.08;;;;;;;;;;5061241;28;20037;-29
2022/03/26 01:06:36;;;;;;;45.40;24.48;;;;;;;;;;5070244;28;20043;-28
2022/03/26 01:09:03;;;;;;;45.05;25.00;;;;;;;;;;5051636;28;20043;-30
2022/03/26 01:11:29;;;;;;;47.67;26.13;;;;;;;;;;5063414;28;20041;-29
2022/03/26 01:13:56;;;;;;;41.83;24.90;;;;;;;;;;5051702;28;20047;-25
2022/03/26 01:16:25;;;;;;;46.00;26.60;;;;;;;;;;5051613;28;20410;-27
2022/03/26 01:18:51;;;;;;;45.88;26.13;;;;;;;;;;5051287;28;20098;-26
2022/03/26 01:21:18;;;;;;;48.75;24.83;;;;;;;;;;5051108;28;20048;-26
2022/03/26 01:23:46;;;;;;;45.53;25.98;;;;;;;;;;5051553;28;20509;-25
2022/03/26 01:26:13;;;;;;;47.53;26.00;;;;;;;;;;5051330;28;20076;-25
2022/03/26 01:28:39;;;;;;;44.05;24.10;;;;;;;;;;5051323;28;20068;-26
2022/03/26 01:31:05;;;;;;;45.60;25.90;;;;;;;;;;5051055;28;20036;-26
2022/03/26 01:33:31;;;;;;;44.38;25.15;;;;;;;;;;5050713;28;20142;-25
2022/03/26 01:35:57;;;;;;;41.70;24.63;;;;;;;;;;5051378;28;20033;-25
2022/03/26 01:38:23;;;;;;;43.00;24.75;;;;;;;;;;5050736;28;20044;-28
2022/03/26 01:40:49;;;;;;;40.10;24.65;;;;;;;;;;5051110;28;20231;-25
2022/03/26 01:43:15;;;;;;;42.20;24.35;;;;;;;;;;5050695;28;20037;-26
2022/03/26 01:45:41;;;;;;;41.85;23.35;;;;;;;;;;5050817;28;20539;-27
2022/03/26 01:48:07;;;;;;;46.22;24.63;;;;;;;;;;5050907;28;20082;-25
2022/03/26 01:50:33;;;;;;;46.78;27.13;;;;;;;;;;5032881;28;20124;-32
2022/03/26 01:53:00;;;;;;;45.03;26.63;;;;;;;;;;5050968;28;20041;-25
2022/03/26 01:55:27;;;;;;;45.10;25.33;;;;;;;;;;5050781;28;20033;-25
2022/03/26 01:57:53;;;;;;;45.03;25.65;;;;;;;;;;5051147;28;20406;-26
2022/03/26 02:00:20;;;;;;;47.72;25.48;;;;;;;;;;5050690;28;20033;-27
2022/03/26 02:02:46;;;;;;;52.78;27.38;;;;;;;;;;5050635;28;20504;-26
2022/03/26 02:05:13;;;;;;;47.95;27.77;;;;;;;;;;5050978;28;20080;-25
2022/03/26 02:07:39;;;;;;;47.95;27.60;;;;;;;;;;5050976;28;20065;-25
2022/03/26 02:10:07;;;;;;;51.47;29.00;;;;;;;;;;5050832;28;20094;-25
2022/03/26 02:12:33;;;;;;;52.30;28.38;;;;;;;;;;5068073;28;20047;-27
2022/03/26 02:14:59;;;;;;;51.85;28.98;;;;;;;;;;5070647;28;20037;-26
2022/03/26 02:17:26;;;;;;;51.50;28.55;;;;;;;;;;5070910;28;20041;-26
2022/03/26 02:19:53;;;;;;;56.22;31.02;;;;;;;;;;5070708;28;20394;-26
2022/03/26 02:22:20;;;;;;;50.20;28.42;;;;;;;;;;5070750;28;20186;-26
2022/03/26 02:24:46;;;;;;;52.83;29.77;;;;;;;;;;5085466;28;20040;-26
2022/03/26 02:27:12;;;;;;;48.67;29.05;;;;;;;;;;5090938;28;20498;-25
2022/03/26 02:29:38;;;;;;;53.78;28.63;;;;;;;;;;5090860;28;20036;-25
2022/03/26 02:32:05;;;;;;;51.28;28.95;;;;;;;;;;5090930;28;20113;-26
2022/03/26 02:34:31;;;;;;;56.95;30.02;;;;;;;;;;5090894;28;20051;-27
2022/03/26 02:36:58;;;;;;;56.28;30.65;;;;;;;;;;5091161;28;20044;-25
2022/03/26 02:39:24;;;;;;;52.67;29.58;;;;;;;;;;5090457;28;20457;-27
2022/03/26 02:41:50;;;;;;;57.40;29.80;;;;;;;;;;5090439;28;20044;-25
2022/03/26 02:44:16;;;;;;;60.83;30.35;;;;;;;;;;5092241;28;20420;-26
2022/03/26 02:46:45;;;;;;;50.35;28.60;;;;;;;;;;5071070;28;20040;-25
2022/03/26 02:49:12;;;;;;;50.53;28.92;;;;;;;;;;5054174;28;20406;-25
2022/03/26 02:51:38;;;;;;;51.08;27.83;;;;;;;;;;5056700;28;20040;-26
2022/03/26 02:54:05;;;;;;;57.35;29.98;;;;;;;;;;5074626;28;20433;-25
2022/03/26 02:56:31;;;;;;;50.78;27.88;;;;;;;;;;5074334;28;20090;-26
2022/03/26 02:58:57;;;;;;;51.97;27.65;;;;;;;;;;5074552;28;20114;-26
2022/03/26 03:01:24;;;;;;;48.47;26.50;;;;;;;;;;5074369;28;20486;-26
2022/03/26 03:03:53;;;;;;;50.55;28.75;;;;;;;;;;5074845;28;20039;-26
2022/03/26 03:06:19;;;;;;;48.95;27.80;;;;;;;;;;5074939;28;20454;-27
2022/03/26 03:08:46;;;;;;;54.13;28.10;;;;;;;;;;5054343;28;20453;-27
2022/03/26 03:11:12;;;;;;;49.47;26.63;;;;;;;;;;5073705;28;20044;-26
2022/03/26 03:13:39;;;;;;;47.90;26.90;;;;;;;;;;5073873;28;20036;-26
2022/03/26 03:16:05;;;;;;;49.70;28.02;;;;;;;;;;5073331;28;20090;-27
2022/03/26 03:18:31;;;;;;;53.92;27.17;;;;;;;;;;5053765;28;20051;-26
2022/03/26 03:20:57;;;;;;;46.55;25.55;;;;;;;;;;5053975;28;20041;-26
2022/03/26 03:23:23;;;;;;;49.80;26.70;;;;;;;;;;5053994;28;20045;-26
2022/03/26 03:25:49;;;;;;;45.60;27.00;;;;;;;;;;5036239;28;20064;-26
2022/03/26 03:28:15;;;;;;;53.00;26.70;;;;;;;;;;5054025;28;20048;-26
2022/03/26 03:30:41;;;;;;;46.65;26.38;;;;;;;;;;5053964;28;20037;-27
2022/03/26 03:33:07;;;;;;;46.28;25.92;;;;;;;;;;5054035;28;20041;-26
2022/03/26 03:35:33;;;;;;;49.25;27.10;;;;;;;;;;5053849;28;20041;-25
2022/03/26 03:38:00;;;;;;;53.38;26.90;;;;;;;;;;5055296;28;20048;-26
2022/03/26 03:40:26;;;;;;;49.83;26.98;;;;;;;;;;5074060;28;20040;-25
2022/03/26 03:42:54;;;;;;;50.38;27.27;;;;;;;;;;5073756;28;20047;-26
2022/03/26 03:45:20;;;;;;;47.03;25.25;;;;;;;;;;5078406;28;20036;-25
2022/03/26 03:47:47;;;;;;;50.45;27.55;;;;;;;;;;5060729;28;20037;-26
2022/03/26 03:50:13;;;;;;;50.10;26.23;;;;;;;;;;5072275;28;20040;-27
2022/03/26 03:52:39;;;;;;;49.90;26.38;;;;;;;;;;5073523;28;20071;-27
2022/03/26 03:55:06;;;;;;;46.42;25.73;;;;;;;;;;5073303;28;20067;-26
2022/03/26 03:57:32;;;;;;;48.33;25.05;;;;;;;;;;5073150;28;20095;-26
2022/03/26 03:59:58;;;;;;;51.17;27.65;;;;;;;;;;5073380;28;20101;-27
2022/03/26 04:02:24;;;;;;;54.55;28.08;;;;;;;;;;5073284;28;20072;-27
2022/03/26 04:04:50;;;;;;;48.35;26.85;;;;;;;;;;5073285;28;20090;-26
2022/03/26 04:07:16;;;;;;;50.85;27.30;;;;;;;;;;5073187;28;20037;-25
2022/03/26 04:09:42;;;;;;;51.67;27.30;;;;;;;;;;5073236;28;20047;-27
2022/03/26 04:12:09;;;;;;;52.72;26.88;;;;;;;;;;5072992;28;20032;-26
2022/03/26 04:14:38;;;;;;;47.65;26.60;;;;;;;;;;5072935;28;20037;-26
2022/03/26 04:17:05;;;;;;;47.25;27.05;;;;;;;;;;5072988;28;20044;-27
2022/03/26 04:19:31;;;;;;;48.75;26.58;;;;;;;;;;5073220;28;20043;-26
2022/03/26 04:21:57;;;;;;;55.80;27.45;;;;;;;;;;5072490;28;20044;-28
2022/03/26 04:24:24;;;;;;;52.28;28.35;;;;;;;;;;5072746;28;20082;-26
2022/03/26 04:26:50;;;;;;;49.63;26.42;;;;;;;;;;5072329;28;20044;-29
2022/03/26 04:29:17;;;;;;;47.22;26.50;;;;;;;;;;5072612;28;20363;-25
2022/03/26 04:31:43;;;;;;;51.42;26.23;;;;;;;;;;5054652;28;20095;-25
2022/03/26 04:34:09;;;;;;;54.50;28.20;;;;;;;;;;5072736;28;20106;-27
2022/03/26 04:36:35;;;;;;;54.95;28.88;;;;;;;;;;5037632;28;20059;-25
2022/03/26 04:39:01;;;;;;;47.20;26.58;;;;;;;;;;5057717;28;20037;-28
2022/03/26 04:41:28;;;;;;;48.92;25.40;;;;;;;;;;5051463;28;20095;-28
2022/03/26 04:43:54;;;;;;;49.85;26.52;;;;;;;;;;5053549;28;20083;-29
2022/03/26 04:46:20;;;;;;;52.22;27.15;;;;;;;;;;5051706;28;20041;-29
2022/03/26 04:48:46;;;;;;;47.92;26.77;;;;;;;;;;5059621;28;20102;-28
2022/03/26 04:51:13;;;;;;;54.25;27.00;;;;;;;;;;5057452;28;20045;-28
2022/03/26 04:53:39;;;;;;;55.60;27.90;;;;;;;;;;5061217;28;20036;-29
2022/03/26 04:56:05;;;;;;;51.08;27.65;;;;;;;;;;5056579;28;20074;-28
2022/03/26 04:58:32;;;;;;;51.55;27.08;;;;;;;;;;5060807;28;20563;-28
2022/03/26 05:01:00;;;;;;;51.85;27.63;;;;;;;;;;5063014;28;20075;-30
2022/03/26 05:03:26;;;;;;;54.70;27.75;;;;;;;;;;5054824;28;20054;-29
2022/03/26 05:05:52;;;;;;;50.08;28.10;;;;;;;;;;5051245;28;20507;-29
2022/03/26 05:08:18;;;;;;;53.90;28.15;;;;;;;;;;5051927;28;20126;-29
2022/03/26 05:10:45;;;;;;;55.20;29.55;;;;;;;;;;5067276;28;20043;-31
2022/03/26 05:13:11;;;;;;;58.15;30.02;;;;;;;;;;5058734;28;20072;-29
2022/03/26 05:15:38;;;;;;;58.80;28.75;;;;;;;;;;5051114;28;20124;-30
2022/03/26 05:18:04;;;;;;;64.32;31.38;;;;;;;;;;5059467;28;20040;-31
2022/03/26 05:20:30;;;;;;;60.35;32.85;;;;;;;;;;5056011;28;20043;-27
2022/03/26 05:22:56;;;;;;;61.65;31.40;;;;;;;;;;5055662;28;20116;-28
2022/03/26 05:25:22;;;;;;;59.55;31.08;;;;;;;;;;5059080;28;20123;-25
2022/03/26 05:27:49;;;;;;;60.65;30.92;;;;;;;;;;5055888;28;20032;-29
2022/03/26 05:30:16;;;;;;;59.47;30.92;;;;;;;;;;5061755;28;20033;-26
2022/03/26 05:32:42;;;;;;;59.70;31.10;;;;;;;;;;5065219;28;20484;-26
2022/03/26 05:35:13;;;;;;;61.92;30.77;;;;;;;;;;5071429;28;20072;-26
2022/03/26 05:37:46;;;;;;;59.08;30.23;;;;;;;;;;5069117;28;20044;-26
2022/03/26 05:40:13;;;;;;;63.33;30.92;;;;;;;;;;5062987;28;20458;-29
2022/03/26 05:42:40;;;;;;;60.78;30.95;;;;;;;;;;5068407;28;20127;-29
2022/03/26 05:45:06;;;;;;;60.47;30.38;;;;;;;;;;5060522;28;20037;-29
2022/03/26 05:47:33;;;;;;;59.50;30.30;;;;;;;;;;5052836;28;20043;-30
2022/03/26 05:49:59;;;;;;;59.72;29.95;;;;;;;;;;5050414;28;20041;-30
2022/03/26 05:52:25;;;;;;;55.03;29.80;;;;;;;;;;5054348;28;20044;-29
2022/03/26 05:54:51;;;;;;;57.08;30.38;;;;;;;;;;5050654;28;20037;-30
2022/03/26 05:57:18;;;;;;;62.25;30.85;;;;;;;;;;5059362;28;20402;-30
2022/03/26 05:59:45;;;;;;;64.25;32.10;;;;;;;;;;5051758;28;20049;-28
2022/03/26 06:02:13;;;;;;;62.22;30.92;;;;;;;;;;5060398;28;20037;-31
2022/03/26 06:04:39;;;;;;;59.35;30.48;;;;;;;;;;5055345;28;20064;-29
2022/03/26 06:07:07;;;;;;;60.85;31.27;;;;;;;;;;5058801;28;20111;-28
2022/03/26 06:09:33;;;;;;;66.90;34.13;;;;;;;;;;5055985;28;20090;-29
2022/03/26 06:11:59;;;;;;;72.20;36.88;;;;;;;;;;5062246;28;20049;-28
2022/03/26 06:14:25;;;;;;;75.68;36.95;;;;;;;;;;5050829;28;20037;-30
2022/03/26 06:16:52;;;;;;;77.72;37.88;;;;;;;;;;5052526;28;20559;-29
2022/03/26 06:19:18;;;;;;;81.63;40.60;;;;;;;;;;5061888;28;20473;-31
2022/03/26 06:21:44;;;;;;;87.25;42.88;;;;;;;;;;5051459;28;20036;-29
2022/03/26 06:24:10;;;;;;;85.72;44.13;;;;;;;;;;5044367;28;20040;-27
2022/03/26 06:26:39;;;;;;;91.30;45.22;;;;;;;;;;5059952;28;20406;-28
2022/03/26 06:29:05;;;;;;;93.57;47.67;;;;;;;;;;5060238;28;20564;-30
2022/03/26 06:31:31;;;;;;;97.50;47.35;;;;;;;;;;5057606;28;20403;-28
2022/03/26 06:33:58;;;;;;;100.82;46.78;;;;;;;;;;5061190;28;20036;-29
2022/03/26 06:36:25;;;;;;;100.18;49.58;;;;;;;;;;5055503;28;20045;-27
2022/03/26 06:38:51;;;;;;;93.97;45.42;;;;;;;;;;5063659;28;20234;-29
2022/03/26 06:41:17;;;;;;;93.78;46.88;;;;;;;;;;5065167;28;20063;-28
2022/03/26 06:43:44;;;;;;;102.30;52.20;;;;;;;;;;5062390;28;20033;-30
2022/03/26 06:46:10;;;;;;;110.18;54.00;;;;;;;;;;5055123;28;20041;-32
2022/03/26 06:48:36;;;;;;;110.07;53.35;;;;;;;;;;5059579;28;20120;-30
2022/03/26 06:51:03;;;;;;;114.57;58.05;;;;;;;;;;5062529;28;20044;-32
2022/03/26 06:53:30;;;;;;;107.70;52.72;;;;;;;;;;5057038;28;20072;-31
2022/03/26 06:55:56;;;;;;;116.65;57.17;;;;;;;;;;5065253;28;20045;-28
2022/03/26 06:58:23;;;;;;;136.48;60.40;;;;;;;;;;5044070;28;20048;-29
2022/03/26 07:00:49;;;;;;;120.30;58.63;;;;;;;;;;5060809;28;20093;-29
2022/03/26 07:03:15;;;;;;;115.78;57.35;;;;;;;;;;5060097;28;20378;-29
2022/03/26 07:05:41;;;;;;;113.97;57.50;;;;;;;;;;5057812;28;20033;-31
2022/03/26 07:08:09;;;;;;;119.28;57.72;;;;;;;;;;5061213;28;20456;-29
2022/03/26 07:10:36;;;;;;;111.30;54.72;;;;;;;;;;5057850;28;20047;-28
2022/03/26 07:13:03;;;;;;;103.03;52.60;;;;;;;;;;5043270;28;20042;-29
2022/03/26 07:15:31;;;;;;;116.43;58.33;;;;;;;;;;5060809;28;20505;-29
2022/03/26 07:17:58;;;;;;;114.07;55.83;;;;;;;;;;5059220;28;20583;-28
2022/03/26 07:20:24;;;;;;;109.78;54.60;;;;;;;;;;5056637;28;20041;-31
2022/03/26 07:22:50;;;;;;;113.85;55.60;;;;;;;;;;5037315;28;20045;-29
2022/03/26 07:25:17;;;;;;;109.97;53.00;;;;;;;;;;5060842;28;20037;-30
2022/03/26 07:27:43;;;;;;;111.53;53.95;;;;;;;;;;5061927;28;20284;-28
2022/03/26 07:30:10;;;;;;;107.68;52.58;;;;;;;;;;5059541;28;20564;-30
2022/03/26 07:32:36;;;;;;;110.15;52.42;;;;;;;;;;5056779;28;20056;-30
2022/03/26 07:35:03;;;;;;;106.88;53.78;;;;;;;;;;5056951;28;20044;-31
2022/03/26 07:37:29;;;;;;;107.70;51.47;;;;;;;;;;5052742;28;20063;-29
2022/03/26 07:39:55;;;;;;;104.97;56.30;;;;;;;;;;5058024;28;20141;-29
2022/03/26 07:42:21;;;;;;;113.68;57.17;;;;;;;;;;5036866;28;20533;-30
2022/03/26 07:44:47;;;;;;;112.07;56.90;;;;;;;;;;5056705;28;20294;-29
2022/03/26 07:47:13;;;;;;;110.82;54.90;;;;;;;;;;5057728;28;20430;-29
2022/03/26 07:49:39;;;;;;;108.32;55.67;;;;;;;;;;5075149;28;20352;-29
2022/03/26 07:52:06;;;;;;;100.97;53.40;;;;;;;;;;5061024;28;20852;-31
2022/03/26 07:54:32;;;;;;;104.78;54.67;;;;;;;;;;5063497;28;20136;-28
2022/03/26 07:56:58;;;;;;;102.65;52.83;;;;;;;;;;5064433;28;20126;-29
2022/03/26 07:59:24;;;;;;;93.88;51.20;;;;;;;;;;5072199;28;20037;-28
2022/03/26 08:01:50;;;;;;;88.60;47.08;;;;;;;;;;5063625;28;20051;-29
2022/03/26 08:04:16;;;;;;;81.25;44.60;;;;;;;;;;5056758;28;20145;-29
2022/03/26 08:06:42;;;;;;;79.47;44.00;;;;;;;;;;5056394;28;20503;-29
2022/03/26 08:09:08;;;;;;;79.53;42.50;;;;;;;;;;5056144;28;20035;-28
2022/03/26 08:11:35;;;;;;;82.70;45.88;;;;;;;;;;5053376;28;20033;-29
2022/03/26 08:14:01;;;;;;;76.43;42.75;;;;;;;;;;5056475;28;20039;-28
2022/03/26 08:16:27;;;;;;;80.30;41.53;;;;;;;;;;5054665;28;20037;-30
2022/03/26 08:18:53;;;;;;;79.30;43.15;;;;;;;;;;5057049;28;20434;-31
2022/03/26 08:21:20;;;;;;;70.03;38.42;;;;;;;;;;5054849;28;20154;-30
2022/03/26 08:23:46;;;;;;;78.20;41.72;;;;;;;;;;5059789;28;20040;-32
2022/03/26 08:26:29;;;;;;;72.18;41.78;;;;;;;;;;5060326;28;20039;-29
2022/03/26 08:28:56;;;;;;;70.75;39.35;;;;;;;;;;5055839;28;20033;-30
2022/03/26 08:31:24;;;;;;;67.38;38.70;;;;;;;;;;5057734;28;20599;-29
2022/03/26 08:33:50;;;;;;;66.03;37.65;;;;;;;;;;5077774;28;20109;-29
2022/03/26 08:36:17;;;;;;;62.50;37.75;;;;;;;;;;5054226;28;20066;-32
2022/03/26 08:38:47;;;;;;;64.57;38.22;;;;;;;;;;5058710;28;20037;-29
2022/03/26 08:41:17;;;;;;;65.28;38.00;;;;;;;;;;5032092;28;20119;-32
2022/03/26 08:43:43;;;;;;;63.72;37.28;;;;;;;;;;5051279;28;20051;-29
2022/03/26 08:46:09;;;;;;;63.88;39.75;;;;;;;;;;5034649;28;20044;-30
2022/03/26 08:48:35;;;;;;;68.50;39.65;;;;;;;;;;5068195;28;20041;-30
2022/03/26 08:51:02;;;;;;;66.00;39.83;;;;;;;;;;5053685;28;20048;-31
2022/03/26 08:53:28;;;;;;;64.28;38.78;;;;;;;;;;5066798;28;20044;-31
2022/03/26 08:55:55;;;;;;;62.58;39.85;;;;;;;;;;5059105;28;20049;-33
2022/03/26 08:58:21;;;;;;;61.78;37.35;;;;;;;;;;5067108;28;20506;-31
2022/03/26 09:00:47;;;;;;;59.50;38.00;;;;;;;;;;5050451;28;20126;-31
2022/03/26 09:03:14;;;;;;;59.38;37.90;;;;;;;;;;5032854;28;20045;-31
2022/03/26 09:05:40;;;;;;;53.50;34.15;;;;;;;;;;5060728;28;20402;-32
2022/03/26 09:08:07;;;;;;;51.10;34.33;;;;;;;;;;5056834;28;20394;-30
2022/03/26 09:10:33;;;;;;;60.70;35.03;;;;;;;;;;5059281;28;20037;-30
2022/03/26 09:12:59;;;;;;;51.72;33.83;;;;;;;;;;5052300;28;20127;-28
2022/03/26 09:15:25;;;;;;;53.97;34.50;;;;;;;;;;5052059;28;20040;-27
2022/03/26 09:17:51;;;;;;;56.03;32.70;;;;;;;;;;5052055;28;20506;-28
2022/03/26 09:20:17;;;;;;;54.33;33.20;;;;;;;;;;5051812;28;20450;-28
2022/03/26 09:22:43;;;;;;;49.63;31.35;;;;;;;;;;5086470;28;20070;-28
2022/03/26 09:25:10;;;;;;;42.45;28.92;;;;;;;;;;5091672;28;20490;-29
2022/03/26 09:27:36;;;;;;;47.05;29.83;;;;;;;;;;5091201;28;20546;-27
2022/03/26 09:30:03;;;;;;;42.42;28.52;;;;;;;;;;5071471;28;20109;-27
2022/03/26 09:32:29;;;;;;;44.72;27.52;;;;;;;;;;5071285;28;20070;-28
2022/03/26 09:34:56;;;;;;;38.35;24.45;;;;;;;;;;5069259;28;20063;-28
2022/03/26 09:37:22;;;;;;;39.65;25.00;;;;;;;;;;5063290;28;20371;-28
2022/03/26 09:39:48;;;;;;;35.55;23.70;;;;;;;;;;5062499;28;20067;-28
2022/03/26 09:42:15;;;;;;;40.10;23.17;;;;;;;;;;5050535;28;20044;-29
2022/03/26 09:44:41;;;;;;;35.63;24.48;;;;;;;;;;5062961;28;20130;-28
2022/03/26 09:47:08;;;;;;;36.78;23.92;;;;;;;;;;5068698;28;20037;-29
2022/03/26 09:49:35;;;;;;;32.47;24.45;;;;;;;;;;5070670;28;20044;-30
2022/03/26 09:52:05;;;;;;;29.90;22.98;;;;;;;;;;5054036;28;20090;-33
2022/03/26 09:54:31;;;;;;;39.58;24.10;;;;;;;;;;5055425;28;20499;-31
2022/03/26 09:56:57;;;;;;;36.58;24.52;;;;;;;;;;5060590;28;20037;-32
2022/03/26 09:59:23;;;;;;;36.80;23.50;;;;;;;;;;5068732;28;20045;-30
2022/03/26 10:01:50;;;;;;;29.15;21.60;;;;;;;;;;5063145;28;20041;-35
2022/03/26 10:04:17;;;;;;;25.83;19.90;;;;;;;;;;5062010;28;20064;-33
2022/03/26 10:06:47;;;;;;;28.15;19.98;;;;;;;;;;5071349;28;20091;-29
2022/03/26 10:09:14;;;;;;;23.23;18.45;;;;;;;;;;5067244;28;20037;-33
2022/03/26 10:11:41;;;;;;;21.10;18.90;;;;;;;;;;5065088;28;20078;-29
2022/03/26 10:14:07;;;;;;;26.23;19.10;;;;;;;;;;5074945;28;20082;-29
2022/03/26 10:16:33;;;;;;;23.38;19.27;;;;;;;;;;5067529;28;20079;-31
2022/03/26 10:19:00;;;;;;;24.40;18.92;;;;;;;;;;5074874;28;20041;-29
2022/03/26 10:21:27;;;;;;;26.08;18.05;;;;;;;;;;5060239;28;20402;-29
2022/03/26 10:23:54;;;;;;;24.38;20.02;;;;;;;;;;5054678;28;20041;-30
2022/03/26 10:26:21;;;;;;;24.27;19.35;;;;;;;;;;5054767;28;20521;-29
2022/03/26 10:29:05;;;;;;;23.52;17.58;;;;;;;;;;5054502;28;20478;-29
2022/03/26 10:34:19;;;;;;;23.80;18.67;;;;;;;;;;5074140;28;20109;-30
2022/03/26 10:36:55;;;;;;;21.23;17.63;;;;;;;;;;5074414;28;20048;-28
2022/03/26 10:39:23;;;;;;;22.50;18.05;;;;;;;;;;5074080;28;20040;-30
2022/03/26 10:41:50;;;;;;;20.98;17.95;;;;;;;;;;5074342;28;20037;-29
2022/03/26 10:44:22;;;;;;;21.23;18.20;;;;;;;;;;5074524;28;20417;-30
2022/03/26 10:46:52;;;;;;;21.80;18.33;;;;;;;;;;5074530;28;20568;-32
2022/03/26 10:49:31;;;;;;;22.88;18.33;;;;;;;;;;5074289;28;20037;-29
2022/03/26 10:52:04;;;;;;;18.70;15.98;;;;;;;;;;5054506;28;20471;-30
2022/03/26 10:54:31;;;;;;;20.17;16.02;;;;;;;;;;5064666;28;20448;-29
2022/03/26 10:57:01;;;;;;;18.55;16.55;;;;;;;;;;5075791;28;20114;-29
2022/03/26 10:59:30;;;;;;;16.60;14.90;;;;;;;;;;5074131;28;20610;-30
2022/03/26 11:01:58;;;;;;;19.45;15.23;;;;;;;;;;5074760;28;20045;-29
2022/03/26 11:04:25;;;;;;;18.63;16.63;;;;;;;;;;5079287;28;20063;-29
2022/03/26 11:06:51;;;;;;;16.83;15.05;;;;;;;;;;5056981;28;20041;-29
2022/03/26 11:09:18;;;;;;;18.00;15.25;;;;;;;;;;5053839;28;20040;-30
2022/03/26 11:11:47;;;;;;;16.35;14.65;;;;;;;;;;5053900;28;20041;-29
2022/03/26 11:14:19;;;;;;;15.68;14.05;;;;;;;;;;5053795;28;20129;-30
2022/03/26 11:17:01;;;;;;;14.93;13.43;;;;;;;;;;5053958;28;20033;-29
2022/03/26 11:19:28;;;;;;;16.30;14.23;;;;;;;;;;5054220;28;20501;-29
2022/03/26 11:22:12;;;;;;;14.73;13.30;;;;;;;;;;5053952;28;20113;-30
2022/03/26 11:25:02;;;;;;;15.82;14.23;;;;;;;;;;5053761;28;20086;-29
2022/03/26 11:27:43;;;;;;;14.52;12.95;;;;;;;;;;5054015;28;20037;-29
2022/03/26 11:30:16;;;;;;;11.50;10.27;;;;;;;;;;5053265;28;20550;-30
2022/03/26 11:32:44;;;;;;;14.23;12.70;;;;;;;;;;5052345;28;20124;-29
2022/03/26 11:35:13;;;;;;;13.75;12.23;;;;;;;;;;5050772;28;20037;-28
2022/03/26 11:37:52;;;;;;;14.27;12.88;;;;;;;;;;5050834;28;20053;-29
2022/03/26 11:40:37;;;;;;;14.75;13.15;;;;;;;;;;5051731;28;20033;-29
2022/03/26 11:43:03;;;;;;;16.90;12.45;;;;;;;;;;5051202;28;20041;-29
2022/03/26 11:51:19;;;;;;;12.27;11.05;;;;;;;;;;5052929;28;20137;-30
2022/03/26 11:53:48;;;;;;;12.18;10.85;;;;;;;;;;5052987;28;20044;-29
2022/03/26 11:56:41;;;;;;;12.13;11.02;;;;;;;;;;5053115;28;20102;-30
2022/03/26 11:59:08;;;;;;;13.43;12.02;;;;;;;;;;5049038;28;20056;-31
2022/03/26 12:01:40;;;;;;;13.45;11.25;;;;;;;;;;5052612;28;20064;-29
2022/03/26 12:04:12;;;;;;;12.75;11.45;;;;;;;;;;5053295;28;20037;-29
2022/03/26 12:06:41;;;;;;;13.70;12.30;;;;;;;;;;5052633;28;20045;-28
2022/03/26 12:09:10;;;;;;;15.00;12.50;;;;;;;;;;5035041;28;20072;-29
2022/03/26 12:11:36;;;;;;;14.38;12.63;;;;;;;;;;5050672;28;20095;-29
2022/03/26 12:14:09;;;;;;;14.25;12.73;;;;;;;;;;5055566;28;20033;-29
2022/03/26 12:16:50;;;;;;;13.27;11.90;;;;;;;;;;5037186;28;20505;-28
2022/03/26 12:19:35;;;;;;;13.32;12.02;;;;;;;;;;5065112;28;20038;-29
2022/03/26 12:22:17;;;;;;;13.85;11.63;;;;;;;;;;5072043;28;20390;-28
2022/03/26 12:24:43;;;;;;;11.60;10.60;;;;;;;;;;5062533;28;20040;-33
2022/03/26 12:27:09;;;;;;;11.00;9.93;;;;;;;;;;5059197;28;20029;-31
2022/03/26 12:29:42;;;;;;;11.23;10.13;;;;;;;;;;5053970;28;20028;-31
2022/03/26 12:32:08;;;;;;;10.68;9.68;;;;;;;;;;5052606;28;20406;-31
2022/03/26 12:34:34;;;;;;;10.40;9.35;;;;;;;;;;5059351;28;20036;-33
2022/03/26 12:37:04;;;;;;;10.38;9.27;;;;;;;;;;5056649;28;20119;-32
2022/03/26 12:39:30;;;;;;;8.27;7.47;;;;;;;;;;5058394;28;20044;-32
2022/03/26 12:41:57;;;;;;;8.55;7.30;;;;;;;;;;5055427;28;20043;-32
2022/03/26 12:44:23;;;;;;;7.82;6.97;;;;;;;;;;5053962;28;20037;-31
2022/03/26 12:46:50;;;;;;;8.50;7.70;;;;;;;;;;5055878;28;20460;-32
2022/03/26 12:49:19;;;;;;;8.15;6.63;;;;;;;;;;5056630;28;20040;-32
2022/03/26 12:51:49;;;;;;;8.25;7.40;;;;;;;;;;5059700;28;20080;-31
2022/03/26 12:54:15;;;;;;;7.63;6.82;;;;;;;;;;5056653;28;20040;-35
2022/03/26 12:56:42;;;;;;;7.88;7.07;;;;;;;;;;5054364;28;20645;-31
2022/03/26 12:59:08;;;;;;;8.68;7.88;;;;;;;;;;5065960;28;20115;-33
2022/03/26 13:01:35;;;;;;;8.07;6.60;;;;;;;;;;5059750;28;20136;-33
2022/03/26 13:04:01;;;;;;;8.60;7.78;;;;;;;;;;5059901;28;20072;-32
2022/03/26 13:06:27;;;;;;;8.10;6.82;;;;;;;;;;5066246;28;20040;-32
2022/03/26 13:08:55;;;;;;;7.93;7.13;;;;;;;;;;5033070;28;20047;-33
2022/03/26 13:11:22;;;;;;;9.23;7.13;;;;;;;;;;5052343;28;20084;-33
2022/03/26 13:13:52;;;;;;;7.88;7.10;;;;;;;;;;5058947;28;20667;-31
2022/03/26 13:16:21;;;;;;;7.68;6.88;;;;;;;;;;5066304;28;20097;-34
2022/03/26 13:18:54;;;;;;;7.97;7.28;;;;;;;;;;5061601;28;20410;-31
2022/03/26 13:21:20;;;;;;;8.68;6.05;;;;;;;;;;5059760;28;20513;-32
2022/03/26 13:23:52;;;;;;;7.40;6.70;;;;;;;;;;5054405;28;20453;-31
2022/03/26 13:26:18;;;;;;;9.30;6.40;;;;;;;;;;5063046;28;20075;-34
2022/03/26 13:28:44;;;;;;;7.18;6.53;;;;;;;;;;5067319;28;20036;-32
2022/03/26 13:31:36;;;;;;;6.72;5.85;;;;;;;;;;5058600;28;20037;-31
2022/03/26 13:34:12;;;;;;;7.55;6.72;;;;;;;;;;5061631;28;20067;-32
2022/03/26 13:36:38;;;;;;;6.88;6.18;;;;;;;;;;5053281;28;20041;-32
2022/03/26 13:39:18;;;;;;;8.40;6.40;;;;;;;;;;5058587;28;20040;-31
2022/03/26 13:41:44;;;;;;;5.72;5.15;;;;;;;;;;5058422;28;20037;-31
2022/03/26 13:44:10;;;;;;;5.75;4.80;;;;;;;;;;5066389;28;20045;-31
2022/03/26 13:46:37;;;;;;;6.25;4.40;;;;;;;;;;5061651;28;20097;-31
2022/03/26 13:49:03;;;;;;;7.57;4.60;;;;;;;;;;5034468;28;20403;-32
2022/03/26 13:51:30;;;;;;;6.45;4.65;;;;;;;;;;5059057;28;20482;-32
2022/03/26 13:53:57;;;;;;;5.50;4.47;;;;;;;;;;5052823;28;20049;-31
2022/03/26 13:56:26;;;;;;;4.90;4.50;;;;;;;;;;5059381;28;20044;-33
2022/03/26 13:58:52;;;;;;;5.18;4.60;;;;;;;;;;5066939;28;20085;-32
2022/03/26 14:01:19;;;;;;;4.53;4.13;;;;;;;;;;5064833;28;20045;-31
2022/03/26 14:03:51;;;;;;;5.00;4.50;;;;;;;;;;5062286;28;20467;-31
2022/03/26 14:06:17;;;;;;;4.83;4.43;;;;;;;;;;5047697;28;20174;-31
2022/03/26 14:08:47;;;;;;;5.03;4.53;;;;;;;;;;5059270;28;20047;-31
2022/03/26 14:11:14;;;;;;;5.20;4.30;;;;;;;;;;5053866;28;20116;-31
2022/03/26 14:13:40;;;;;;;4.80;4.30;;;;;;;;;;5069540;28;20047;-31
2022/03/26 14:16:06;;;;;;;5.70;4.88;;;;;;;;;;5055450;28;20067;-30
2022/03/26 14:18:32;;;;;;;5.88;5.30;;;;;;;;;;5055147;28;20047;-32
2022/03/26 14:20:58;;;;;;;5.50;4.60;;;;;;;;;;5060674;28;20048;-32
2022/03/26 14:23:25;;;;;;;5.05;4.55;;;;;;;;;;5052068;28;20049;-31
2022/03/26 14:25:51;;;;;;;4.95;4.45;;;;;;;;;;5062996;28;20037;-31
2022/03/26 14:28:17;;;;;;;5.13;4.60;;;;;;;;;;5061396;28;20036;-31